PAL556 RPMD-RPVP
Flight info
| Callsign | PAL556 |
|---|---|
| Flight time | N/A |
| Altitude | 36000 |
| Route | ANKIN3P ANKIN B473 LUMVI W7 IOO W17 ZENNY ZENNY2W |
| Aircraft | B744/H-SDE3FGHIM1M2RWXY/LB1 |
Departure
| Time | 2026-05-06 13:05 |
|---|---|
| Airport | Francisco Bangoy International Airport (RPMD) |
Arrival
| Time | N/A |
|---|---|
| Airport | Puerto Princesa International Airport / PAF Antonio Bautista Air Base (RPVP) |
| Time | Latitude | Longitude | Altitude | Speed | Heading |
|---|---|---|---|---|---|
| 2026-05-06 12:42 | 7.12946 | 125.64552 | 107 ft | 0 kts | 319° |
| 2026-05-06 12:53 | 7.12940 | 125.64557 | 107 ft | 2 kts | 319° |
| 2026-05-06 12:53 | 7.12925 | 125.64571 | 107 ft | 2 kts | 319° |
| 2026-05-06 12:53 | 7.12910 | 125.64584 | 107 ft | 2 kts | 319° |
| 2026-05-06 12:54 | 7.12897 | 125.64594 | 107 ft | 2 kts | 319° |
| 2026-05-06 12:54 | 7.12885 | 125.64603 | 107 ft | 2 kts | 350° |
| 2026-05-06 12:54 | 7.12870 | 125.64601 | 107 ft | 2 kts | 36° |
| 2026-05-06 12:54 | 7.12864 | 125.64596 | 107 ft | 0 kts | 52° |
| 2026-05-06 12:55 | 7.12861 | 125.64593 | 107 ft | 0 kts | 49° |
| 2026-05-06 12:58 | 7.12862 | 125.64593 | 107 ft | 0 kts | 46° |
| 2026-05-06 12:58 | 7.12861 | 125.64593 | 107 ft | 0 kts | 49° |
| 2026-05-06 12:59 | 7.12911 | 125.64647 | 107 ft | 16 kts | 48° |
| 2026-05-06 13:00 | 7.12964 | 125.64708 | 107 ft | 8 kts | 49° |
| 2026-05-06 13:00 | 7.12996 | 125.64745 | 107 ft | 7 kts | 49° |
| 2026-05-06 13:00 | 7.13015 | 125.64780 | 107 ft | 4 kts | 96° |
| 2026-05-06 13:00 | 7.13005 | 125.64805 | 107 ft | 4 kts | 125° |
| 2026-05-06 13:01 | 7.12971 | 125.64843 | 107 ft | 10 kts | 141° |
| 2026-05-06 13:01 | 7.12923 | 125.64883 | 107 ft | 7 kts | 140° |
| 2026-05-06 13:01 | 7.12887 | 125.64915 | 107 ft | 7 kts | 130° |
| 2026-05-06 13:01 | 7.12885 | 125.64964 | 107 ft | 8 kts | 53° |
| 2026-05-06 13:02 | 7.12930 | 125.65015 | 107 ft | 13 kts | 48° |
| 2026-05-06 13:02 | 7.13017 | 125.65113 | 107 ft | 24 kts | 48° |
| 2026-05-06 13:02 | 7.13140 | 125.65260 | 107 ft | 26 kts | 49° |
| 2026-05-06 13:02 | 7.13250 | 125.65389 | 107 ft | 22 kts | 49° |
| 2026-05-06 13:03 | 7.13338 | 125.65490 | 107 ft | 13 kts | 38° |
| 2026-05-06 13:03 | 7.13411 | 125.65518 | 107 ft | 9 kts | 19° |
| 2026-05-06 13:03 | 7.13447 | 125.65540 | 107 ft | 1 kts | 62° |
| 2026-05-06 13:03 | 7.13450 | 125.65559 | 107 ft | 4 kts | 102° |
| 2026-05-06 13:04 | 7.13426 | 125.65580 | 107 ft | 5 kts | 182° |
| 2026-05-06 13:04 | 7.13400 | 125.65562 | 107 ft | 0 kts | 228° |
| 2026-05-06 13:04 | 7.13398 | 125.65560 | 107 ft | 3 kts | 228° |
| 2026-05-06 13:04 | 7.13191 | 125.65318 | 107 ft | 97 kts | 230° |
| 2026-05-06 13:05 | 7.12580 | 125.64612 | 210 ft | 168 kts | 229° |
| 2026-05-06 13:05 | 7.11808 | 125.63712 | 954 ft | 177 kts | 229° |
| 2026-05-06 13:05 | 7.11090 | 125.62766 | 1743 ft | 172 kts | 243° |
| 2026-05-06 13:05 | 7.10869 | 125.61806 | 2189 ft | 172 kts | 271° |
| 2026-05-06 13:06 | 7.11092 | 125.60886 | 2613 ft | 172 kts | 297° |
| 2026-05-06 13:06 | 7.11903 | 125.59978 | 3054 ft | 180 kts | 323° |
| 2026-05-06 13:06 | 7.12937 | 125.59203 | 3542 ft | 190 kts | 321° |
| 2026-05-06 13:06 | 7.13932 | 125.58358 | 4168 ft | 193 kts | 320° |
| 2026-05-06 13:07 | 7.14991 | 125.57456 | 4769 ft | 204 kts | 319° |
| 2026-05-06 13:07 | 7.16067 | 125.56503 | 5334 ft | 214 kts | 318° |
| 2026-05-06 13:07 | 7.17193 | 125.55486 | 5845 ft | 228 kts | 318° |
| 2026-05-06 13:07 | 7.18376 | 125.54398 | 6504 ft | 235 kts | 317° |
| 2026-05-06 13:08 | 7.19562 | 125.53296 | 7318 ft | 239 kts | 317° |
| 2026-05-06 13:08 | 7.20762 | 125.52170 | 8162 ft | 242 kts | 316° |
| 2026-05-06 13:08 | 7.21992 | 125.51008 | 8979 ft | 244 kts | 316° |
| 2026-05-06 13:08 | 7.23215 | 125.49847 | 9749 ft | 245 kts | 316° |
| 2026-05-06 13:09 | 7.24426 | 125.48693 | 10471 ft | 247 kts | 315° |
| 2026-05-06 13:09 | 7.25656 | 125.47519 | 11171 ft | 249 kts | 315° |
| 2026-05-06 13:09 | 7.26907 | 125.46322 | 11854 ft | 253 kts | 315° |
| 2026-05-06 13:09 | 7.28193 | 125.45090 | 12517 ft | 257 kts | 314° |
| 2026-05-06 13:10 | 7.29484 | 125.43851 | 13156 ft | 263 kts | 314° |
| 2026-05-06 13:10 | 7.30816 | 125.42572 | 13771 ft | 272 kts | 314° |
| 2026-05-06 13:10 | 7.32203 | 125.41240 | 14328 ft | 281 kts | 314° |
| 2026-05-06 13:10 | 7.33644 | 125.39863 | 14817 ft | 292 kts | 316° |
| 2026-05-06 13:11 | 7.35303 | 125.38628 | 15196 ft | 307 kts | 325° |
| 2026-05-06 13:11 | 7.37122 | 125.37419 | 15447 ft | 328 kts | 323° |
| 2026-05-06 13:11 | 7.39089 | 125.36063 | 15639 ft | 354 kts | 324° |
| 2026-05-06 13:11 | 7.41138 | 125.34703 | 16392 ft | 361 kts | 324° |
| 2026-05-06 13:12 | 7.43226 | 125.33292 | 17292 ft | 366 kts | 324° |
| 2026-05-06 13:12 | 7.45347 | 125.31873 | 18104 ft | 371 kts | 324° |
| 2026-05-06 13:12 | 7.47517 | 125.30420 | 18896 ft | 375 kts | 324° |
| 2026-05-06 13:12 | 7.49693 | 125.28964 | 19673 ft | 379 kts | 324° |
| 2026-05-06 13:13 | 7.51886 | 125.27494 | 20408 ft | 387 kts | 325° |
| 2026-05-06 13:13 | 7.54112 | 125.26005 | 21342 ft | 392 kts | 325° |
| 2026-05-06 13:13 | 7.56377 | 125.24488 | 22256 ft | 396 kts | 325° |
| 2026-05-06 13:13 | 7.58693 | 125.22937 | 23144 ft | 401 kts | 325° |
| 2026-05-06 13:14 | 7.61006 | 125.21388 | 23989 ft | 405 kts | 325° |
| 2026-05-06 13:14 | 7.63348 | 125.19820 | 24809 ft | 410 kts | 326° |
| 2026-05-06 13:14 | 7.65723 | 125.18230 | 25592 ft | 415 kts | 326° |
| 2026-05-06 13:14 | 7.68148 | 125.16607 | 26367 ft | 419 kts | 326° |
| 2026-05-06 13:15 | 7.70549 | 125.14999 | 27110 ft | 423 kts | 326° |
| 2026-05-06 13:15 | 7.73022 | 125.13342 | 27843 ft | 427 kts | 326° |
| 2026-05-06 13:15 | 7.75486 | 125.11692 | 28542 ft | 431 kts | 326° |
| 2026-05-06 13:15 | 7.77969 | 125.10028 | 29222 ft | 435 kts | 326° |
| 2026-05-06 13:16 | 7.80485 | 125.08343 | 29899 ft | 438 kts | 326° |
| 2026-05-06 13:16 | 7.83049 | 125.06625 | 30558 ft | 442 kts | 326° |
| 2026-05-06 13:16 | 7.85603 | 125.04913 | 31190 ft | 445 kts | 326° |
| 2026-05-06 13:16 | 7.88173 | 125.03190 | 31805 ft | 449 kts | 326° |
| 2026-05-06 13:17 | 7.90779 | 125.01444 | 32414 ft | 452 kts | 327° |
| 2026-05-06 13:17 | 7.93384 | 124.99696 | 33002 ft | 455 kts | 327° |
| 2026-05-06 13:17 | 7.96007 | 124.97929 | 33588 ft | 457 kts | 325° |
| 2026-05-06 13:17 | 7.98504 | 124.95980 | 34155 ft | 459 kts | 321° |
| 2026-05-06 13:18 | 8.00976 | 124.93961 | 34706 ft | 461 kts | 322° |
| 2026-05-06 13:18 | 8.03496 | 124.91941 | 35215 ft | 464 kts | 321° |
| 2026-05-06 13:18 | 8.06001 | 124.89895 | 35644 ft | 469 kts | 321° |
| 2026-05-06 13:18 | 8.08580 | 124.87809 | 35887 ft | 479 kts | 321° |
| 2026-05-06 13:19 | 8.11183 | 124.85689 | 35978 ft | 480 kts | 321° |
| 2026-05-06 13:19 | 8.16190 | 124.81615 | 35901 ft | 472 kts | 321° |
| 2026-05-06 13:20 | 8.21244 | 124.77497 | 35849 ft | 464 kts | 321° |
| 2026-05-06 13:20 | 8.26255 | 124.73412 | 35872 ft | 466 kts | 321° |
| 2026-05-06 13:21 | 8.31275 | 124.69318 | 35886 ft | 466 kts | 321° |
| 2026-05-06 13:21 | 8.36322 | 124.65200 | 35886 ft | 467 kts | 321° |
| 2026-05-06 13:22 | 8.41355 | 124.61086 | 35885 ft | 469 kts | 321° |
| 2026-05-06 13:22 | 8.46322 | 124.56778 | 35906 ft | 474 kts | 320° |
| 2026-05-06 13:23 | 8.51314 | 124.52454 | 35898 ft | 475 kts | 320° |
| 2026-05-06 13:23 | 8.56314 | 124.48121 | 35888 ft | 475 kts | 320° |
| 2026-05-06 13:24 | 8.61304 | 124.43791 | 35886 ft | 475 kts | 320° |
| 2026-05-06 13:24 | 8.66299 | 124.39454 | 35884 ft | 475 kts | 320° |
| 2026-05-06 13:25 | 8.71273 | 124.35133 | 35885 ft | 475 kts | 320° |
| 2026-05-06 13:25 | 8.76264 | 124.30795 | 35885 ft | 475 kts | 319° |
| 2026-05-06 13:26 | 8.81269 | 124.26444 | 35885 ft | 475 kts | 319° |
| 2026-05-06 13:26 | 8.86265 | 124.22098 | 35886 ft | 475 kts | 319° |
| 2026-05-06 13:27 | 8.91251 | 124.17760 | 35885 ft | 475 kts | 319° |
| 2026-05-06 13:27 | 8.96237 | 124.13421 | 35885 ft | 475 kts | 319° |
| 2026-05-06 13:28 | 9.01228 | 124.09077 | 35885 ft | 474 kts | 319° |
| 2026-05-06 13:28 | 9.06184 | 124.04761 | 35875 ft | 470 kts | 319° |
| 2026-05-06 13:29 | 9.11059 | 124.00514 | 35878 ft | 467 kts | 319° |
| 2026-05-06 13:29 | 9.15963 | 123.96242 | 35878 ft | 467 kts | 319° |
| 2026-05-06 13:30 | 9.20877 | 123.91957 | 35885 ft | 468 kts | 319° |
| 2026-05-06 13:30 | 9.25799 | 123.87666 | 35889 ft | 469 kts | 319° |
| 2026-05-06 13:31 | 9.30714 | 123.83379 | 35885 ft | 468 kts | 319° |
| 2026-05-06 13:31 | 9.35618 | 123.79099 | 35882 ft | 467 kts | 319° |
| 2026-05-06 13:32 | 9.40538 | 123.74803 | 35894 ft | 470 kts | 319° |
| 2026-05-06 13:32 | 9.45493 | 123.70476 | 35894 ft | 472 kts | 319° |
| 2026-05-06 13:33 | 9.50432 | 123.66161 | 35889 ft | 472 kts | 319° |
| 2026-05-06 13:33 | 9.55363 | 123.61851 | 35883 ft | 471 kts | 319° |
| 2026-05-06 13:34 | 9.60350 | 123.57490 | 35881 ft | 471 kts | 319° |
| 2026-05-06 13:34 | 9.65274 | 123.53184 | 35878 ft | 469 kts | 319° |
| 2026-05-06 13:35 | 9.70180 | 123.48891 | 35879 ft | 467 kts | 319° |
| 2026-05-06 13:35 | 9.75087 | 123.44595 | 35882 ft | 468 kts | 319° |
| 2026-05-06 13:36 | 9.79994 | 123.40299 | 35890 ft | 469 kts | 319° |
| 2026-05-06 13:36 | 9.84921 | 123.35983 | 35890 ft | 470 kts | 319° |
| 2026-05-06 13:37 | 9.89842 | 123.31671 | 35884 ft | 469 kts | 319° |
| 2026-05-06 13:37 | 9.94764 | 123.27356 | 35881 ft | 469 kts | 319° |
| 2026-05-06 13:38 | 9.99688 | 123.23037 | 35886 ft | 468 kts | 319° |
| 2026-05-06 13:38 | 10.04597 | 123.18729 | 35890 ft | 468 kts | 319° |
| 2026-05-06 13:39 | 10.09491 | 123.14434 | 35887 ft | 468 kts | 319° |
| 2026-05-06 13:39 | 10.14376 | 123.10146 | 35889 ft | 468 kts | 319° |
| 2026-05-06 13:40 | 10.19315 | 123.05805 | 35900 ft | 473 kts | 319° |
| 2026-05-06 13:40 | 10.24293 | 123.01428 | 35906 ft | 475 kts | 319° |
| 2026-05-06 13:41 | 10.29265 | 122.97055 | 35893 ft | 472 kts | 320° |
| 2026-05-06 13:41 | 10.34202 | 122.92710 | 35898 ft | 471 kts | 320° |
| 2026-05-06 13:42 | 10.39117 | 122.88384 | 35904 ft | 468 kts | 320° |
| 2026-05-06 13:42 | 10.44027 | 122.84064 | 35906 ft | 466 kts | 320° |
| 2026-05-06 13:43 | 10.48913 | 122.79761 | 35907 ft | 466 kts | 320° |
| 2026-05-06 13:43 | 10.53778 | 122.75474 | 35914 ft | 468 kts | 320° |
| 2026-05-06 13:44 | 10.58702 | 122.71133 | 35912 ft | 468 kts | 320° |
| 2026-05-06 13:44 | 10.63613 | 122.66803 | 35912 ft | 468 kts | 320° |
| 2026-05-06 13:45 | 10.68510 | 122.62483 | 35912 ft | 468 kts | 320° |
| 2026-05-06 13:45 | 10.75832 | 122.56014 | 35910 ft | 468 kts | 320° |
| 2026-05-06 13:46 | 10.78088 | 122.53629 | 35873 ft | 469 kts | 309° |
| 2026-05-06 13:46 | 10.79783 | 122.50816 | 35870 ft | 471 kts | 296° |
| 2026-05-06 13:46 | 10.80846 | 122.47644 | 35887 ft | 473 kts | 283° |
| 2026-05-06 13:46 | 10.81201 | 122.44362 | 35900 ft | 475 kts | 271° |
| 2026-05-06 13:47 | 10.80843 | 122.40989 | 35911 ft | 477 kts | 258° |
| 2026-05-06 13:47 | 10.80005 | 122.37753 | 35950 ft | 478 kts | 255° |
| 2026-05-06 13:47 | 10.78278 | 122.31259 | 35935 ft | 478 kts | 255° |
| 2026-05-06 13:48 | 10.76473 | 122.24753 | 35911 ft | 478 kts | 254° |
| 2026-05-06 13:48 | 10.74645 | 122.18282 | 35901 ft | 478 kts | 254° |
| 2026-05-06 13:49 | 10.72794 | 122.11786 | 35892 ft | 478 kts | 254° |
| 2026-05-06 13:49 | 10.71250 | 122.06396 | 35883 ft | 476 kts | 254° |
| 2026-05-06 13:50 | 10.69097 | 121.98914 | 35879 ft | 474 kts | 254° |
| 2026-05-06 13:50 | 10.67242 | 121.92479 | 35883 ft | 475 kts | 254° |
| 2026-05-06 13:51 | 10.65399 | 121.86079 | 35886 ft | 475 kts | 254° |
| 2026-05-06 13:51 | 10.63538 | 121.79621 | 35885 ft | 475 kts | 254° |
| 2026-05-06 13:52 | 10.61688 | 121.73209 | 35885 ft | 475 kts | 254° |
| 2026-05-06 13:52 | 10.59836 | 121.66794 | 35885 ft | 475 kts | 254° |
| 2026-05-06 13:53 | 10.57972 | 121.60339 | 35885 ft | 475 kts | 254° |
| 2026-05-06 13:53 | 10.56114 | 121.53917 | 35885 ft | 476 kts | 254° |
| 2026-05-06 13:54 | 10.54254 | 121.47491 | 35886 ft | 476 kts | 254° |
| 2026-05-06 13:54 | 10.52383 | 121.41034 | 35886 ft | 476 kts | 254° |
| 2026-05-06 13:55 | 10.50518 | 121.34600 | 35882 ft | 475 kts | 254° |
| 2026-05-06 13:55 | 10.48657 | 121.28188 | 35883 ft | 475 kts | 254° |
| 2026-05-06 13:56 | 10.46790 | 121.21763 | 35883 ft | 474 kts | 254° |
| 2026-05-06 13:56 | 10.44934 | 121.15377 | 35884 ft | 474 kts | 254° |
| 2026-05-06 13:57 | 10.43067 | 121.08958 | 35885 ft | 475 kts | 254° |
| 2026-05-06 13:57 | 10.41193 | 121.02520 | 35885 ft | 475 kts | 254° |
| 2026-05-06 13:58 | 10.39328 | 120.96121 | 35885 ft | 475 kts | 253° |
| 2026-05-06 13:58 | 10.37456 | 120.89700 | 35885 ft | 476 kts | 253° |
| 2026-05-06 13:59 | 10.35578 | 120.83267 | 35885 ft | 476 kts | 253° |
| 2026-05-06 13:59 | 10.33696 | 120.76824 | 35885 ft | 476 kts | 253° |
| 2026-05-06 14:00 | 10.31819 | 120.70406 | 35885 ft | 476 kts | 253° |
| 2026-05-06 14:00 | 10.29942 | 120.63990 | 35885 ft | 476 kts | 253° |
| 2026-05-06 14:01 | 10.28056 | 120.57547 | 35884 ft | 476 kts | 253° |
| 2026-05-06 14:01 | 10.26180 | 120.51145 | 35884 ft | 475 kts | 253° |
| 2026-05-06 14:02 | 10.24298 | 120.44729 | 35884 ft | 475 kts | 253° |
| 2026-05-06 14:02 | 10.22402 | 120.38323 | 35884 ft | 474 kts | 253° |
| 2026-05-06 14:03 | 10.20493 | 120.31898 | 35883 ft | 474 kts | 253° |
| 2026-05-06 14:03 | 10.18599 | 120.25533 | 35884 ft | 474 kts | 253° |
| 2026-05-06 14:04 | 10.16682 | 120.19098 | 35885 ft | 474 kts | 253° |
| 2026-05-06 14:04 | 10.14787 | 120.12743 | 35885 ft | 474 kts | 253° |
| 2026-05-06 14:05 | 10.12874 | 120.06331 | 35885 ft | 474 kts | 253° |
| 2026-05-06 14:05 | 10.10965 | 119.99940 | 35885 ft | 474 kts | 253° |
| 2026-05-06 14:06 | 10.09058 | 119.93560 | 35885 ft | 474 kts | 253° |
| 2026-05-06 14:06 | 10.07140 | 119.87148 | 35885 ft | 475 kts | 253° |
| 2026-05-06 14:07 | 10.05239 | 119.80794 | 35889 ft | 475 kts | 253° |
| 2026-05-06 14:07 | 10.03322 | 119.74395 | 35905 ft | 474 kts | 253° |
| 2026-05-06 14:08 | 10.01405 | 119.67999 | 35910 ft | 475 kts | 253° |
| 2026-05-06 14:08 | 9.99491 | 119.61619 | 35911 ft | 475 kts | 253° |
| 2026-05-06 14:09 | 9.97563 | 119.55196 | 35912 ft | 475 kts | 253° |
| 2026-05-06 14:09 | 9.95647 | 119.48819 | 35913 ft | 475 kts | 253° |
| 2026-05-06 14:10 | 9.93708 | 119.42451 | 35903 ft | 475 kts | 251° |
| 2026-05-06 14:10 | 9.92285 | 119.39404 | 35874 ft | 475 kts | 239° |
| 2026-05-06 14:10 | 9.90594 | 119.36575 | 35911 ft | 474 kts | 239° |
| 2026-05-06 14:11 | 9.87233 | 119.30843 | 35920 ft | 475 kts | 238° |
| 2026-05-06 14:11 | 9.83826 | 119.25107 | 35915 ft | 476 kts | 238° |
| 2026-05-06 14:12 | 9.80415 | 119.19383 | 35913 ft | 476 kts | 238° |
| 2026-05-06 14:12 | 9.76985 | 119.13657 | 35912 ft | 476 kts | 238° |
| 2026-05-06 14:13 | 9.73974 | 119.07725 | 35870 ft | 475 kts | 253° |
| 2026-05-06 14:13 | 9.73351 | 119.04483 | 35874 ft | 473 kts | 265° |
| 2026-05-06 14:13 | 9.73276 | 119.01150 | 35916 ft | 473 kts | 271° |
| 2026-05-06 14:14 | 9.73432 | 118.94518 | 35935 ft | 473 kts | 272° |
| 2026-05-06 14:14 | 9.73693 | 118.87818 | 35918 ft | 473 kts | 272° |
| 2026-05-06 14:15 | 9.73982 | 118.81209 | 35914 ft | 474 kts | 272° |
| 2026-05-06 14:15 | 9.74298 | 118.74542 | 35912 ft | 473 kts | 272° |
| 2026-05-06 14:16 | 9.74151 | 118.71230 | 35880 ft | 474 kts | 261° |
| 2026-05-06 14:16 | 9.73305 | 118.68005 | 35880 ft | 474 kts | 248° |
| 2026-05-06 14:16 | 9.71806 | 118.65076 | 35898 ft | 473 kts | 236° |
| 2026-05-06 14:16 | 9.69689 | 118.62511 | 35912 ft | 473 kts | 223° |
| 2026-05-06 14:17 | 9.67105 | 118.60501 | 35919 ft | 471 kts | 210° |
| 2026-05-06 14:17 | 9.64167 | 118.59114 | 35920 ft | 470 kts | 197° |
| 2026-05-06 14:17 | 9.60986 | 118.58407 | 35919 ft | 468 kts | 185° |
| 2026-05-06 14:17 | 9.57784 | 118.58423 | 35916 ft | 465 kts | 172° |
| 2026-05-06 14:18 | 9.54635 | 118.59158 | 35914 ft | 463 kts | 159° |
| 2026-05-06 14:18 | 9.51766 | 118.60564 | 35913 ft | 461 kts | 146° |
| 2026-05-06 14:18 | 9.49263 | 118.62592 | 35912 ft | 459 kts | 134° |
| 2026-05-06 14:18 | 9.47305 | 118.65089 | 35912 ft | 457 kts | 121° |
| 2026-05-06 14:19 | 9.45935 | 118.67992 | 35912 ft | 456 kts | 108° |
| 2026-05-06 14:19 | 9.44993 | 118.71048 | 35946 ft | 456 kts | 107° |
| 2026-05-06 14:19 | 9.43052 | 118.77133 | 35941 ft | 458 kts | 107° |
| 2026-05-06 14:20 | 9.41106 | 118.83263 | 35919 ft | 458 kts | 107° |
| 2026-05-06 14:20 | 9.39162 | 118.89389 | 35914 ft | 458 kts | 107° |
| 2026-05-06 14:21 | 9.37223 | 118.95496 | 35912 ft | 458 kts | 107° |
| 2026-05-06 14:21 | 9.35273 | 119.01638 | 35912 ft | 459 kts | 107° |
| 2026-05-06 14:22 | 9.33319 | 119.07790 | 35912 ft | 459 kts | 107° |
| 2026-05-06 14:22 | 9.31368 | 119.13936 | 35912 ft | 459 kts | 107° |
| 2026-05-06 14:23 | 9.29415 | 119.20088 | 35912 ft | 459 kts | 107° |
| 2026-05-06 14:23 | 9.27465 | 119.26231 | 35912 ft | 459 kts | 107° |
| 2026-05-06 14:24 | 9.25522 | 119.32354 | 35912 ft | 459 kts | 107° |
| 2026-05-06 14:24 | 9.23581 | 119.38468 | 35912 ft | 459 kts | 107° |
| 2026-05-06 14:25 | 9.21429 | 119.44554 | 35900 ft | 460 kts | 113° |
| 2026-05-06 14:25 | 9.18455 | 119.50294 | 35915 ft | 461 kts | 119° |
| 2026-05-06 14:26 | 9.15112 | 119.55772 | 35913 ft | 461 kts | 122° |
| 2026-05-06 14:26 | 9.11548 | 119.61169 | 35912 ft | 462 kts | 123° |
| 2026-05-06 14:27 | 9.07891 | 119.66487 | 35914 ft | 463 kts | 124° |
| 2026-05-06 14:27 | 9.04158 | 119.71806 | 35913 ft | 465 kts | 124° |
| 2026-05-06 14:28 | 9.00398 | 119.77108 | 35912 ft | 467 kts | 124° |
| 2026-05-06 14:28 | 8.96613 | 119.82416 | 35912 ft | 469 kts | 124° |
| 2026-05-06 14:29 | 8.92792 | 119.87761 | 35912 ft | 469 kts | 124° |
| 2026-05-06 14:29 | 8.88985 | 119.93076 | 35910 ft | 469 kts | 124° |
| 2026-05-06 14:30 | 8.85151 | 119.98422 | 35911 ft | 469 kts | 124° |
| 2026-05-06 14:30 | 8.81338 | 120.03738 | 35911 ft | 469 kts | 124° |
| 2026-05-06 14:31 | 8.77510 | 120.09068 | 35912 ft | 469 kts | 124° |
| 2026-05-06 14:31 | 8.73681 | 120.14397 | 35912 ft | 469 kts | 124° |
| 2026-05-06 14:32 | 8.69875 | 120.19692 | 35912 ft | 469 kts | 124° |
| 2026-05-06 14:32 | 8.66038 | 120.25029 | 35912 ft | 469 kts | 124° |
| 2026-05-06 14:33 | 8.62216 | 120.30343 | 35912 ft | 469 kts | 124° |
| 2026-05-06 14:33 | 8.58386 | 120.35666 | 35912 ft | 469 kts | 124° |
| 2026-05-06 14:34 | 8.54556 | 120.40985 | 35912 ft | 469 kts | 124° |
| 2026-05-06 14:34 | 8.50736 | 120.46259 | 35897 ft | 464 kts | 126° |
| 2026-05-06 14:35 | 8.46900 | 120.51479 | 35890 ft | 465 kts | 125° |
| 2026-05-06 14:35 | 8.43129 | 120.56771 | 35909 ft | 460 kts | 124° |
| 2026-05-06 14:36 | 8.39426 | 120.61952 | 35888 ft | 454 kts | 124° |
| 2026-05-06 14:36 | 8.35753 | 120.67071 | 35878 ft | 448 kts | 124° |
| 2026-05-06 14:37 | 8.32121 | 120.72117 | 35873 ft | 441 kts | 124° |
| 2026-05-06 14:37 | 8.28569 | 120.77042 | 35869 ft | 434 kts | 124° |
| 2026-05-06 14:38 | 8.25065 | 120.81895 | 35852 ft | 426 kts | 124° |
| 2026-05-06 14:38 | 8.21606 | 120.86682 | 35834 ft | 417 kts | 124° |
| 2026-05-06 14:39 | 8.18240 | 120.91339 | 35826 ft | 409 kts | 124° |
| 2026-05-06 14:39 | 8.14928 | 120.95919 | 35818 ft | 400 kts | 124° |
| 2026-05-06 14:40 | 8.11691 | 121.00397 | 35803 ft | 390 kts | 124° |
| 2026-05-06 14:40 | 8.08540 | 121.04754 | 35792 ft | 379 kts | 125° |
| 2026-05-06 14:41 | 8.05499 | 121.08957 | 35775 ft | 367 kts | 125° |
| 2026-05-06 14:41 | 8.02544 | 121.13039 | 35753 ft | 354 kts | 125° |
| 2026-05-06 14:42 | 7.99703 | 121.16963 | 35719 ft | 339 kts | 125° |
| 2026-05-06 14:42 | 7.97005 | 121.20688 | 35670 ft | 322 kts | 126° |
| 2026-05-06 14:43 | 7.94432 | 121.24240 | 35583 ft | 303 kts | 126° |
| 2026-05-06 14:43 | 7.93213 | 121.25921 | 35487 ft | 293 kts | 126° |
| 2026-05-06 14:43 | 7.92041 | 121.27538 | 35357 ft | 284 kts | 126° |
| 2026-05-06 14:44 | 7.90885 | 121.29129 | 35166 ft | 275 kts | 126° |
| 2026-05-06 14:44 | 7.89763 | 121.30647 | 34758 ft | 270 kts | 129° |
| 2026-05-06 14:44 | 7.88589 | 121.32128 | 33815 ft | 280 kts | 118° |
| 2026-05-06 14:45 | 7.86192 | 121.35297 | 31081 ft | 303 kts | 98° |
| 2026-05-06 14:45 | 7.85229 | 121.37096 | 29091 ft | 324 kts | 166° |
| 2026-05-06 14:45 | 7.83130 | 121.37726 | 25741 ft | 357 kts | 120° |
| 2026-05-06 14:45 | 7.82158 | 121.39892 | 23658 ft | 360 kts | 120° |
| 2026-05-06 14:46 | 7.80797 | 121.42053 | 23350 ft | 373 kts | 122° |
| 2026-05-06 14:46 | 7.79374 | 121.44320 | 22918 ft | 389 kts | 122° |
| 2026-05-06 14:46 | 7.77864 | 121.46605 | 22724 ft | 397 kts | 124° |
| 2026-05-06 14:46 | 7.76311 | 121.48898 | 22873 ft | 396 kts | 124° |
| 2026-05-06 14:47 | 7.74745 | 121.51171 | 23155 ft | 392 kts | 125° |
| 2026-05-06 14:47 | 7.73184 | 121.53404 | 23247 ft | 393 kts | 125° |
| 2026-05-06 14:47 | 7.71582 | 121.55673 | 23155 ft | 399 kts | 125° |
| 2026-05-06 14:47 | 7.69966 | 121.57940 | 23214 ft | 401 kts | 126° |
| 2026-05-06 14:48 | 7.68330 | 121.60224 | 23313 ft | 401 kts | 126° |
| 2026-05-06 14:48 | 7.66697 | 121.62492 | 23427 ft | 402 kts | 126° |
| 2026-05-06 14:48 | 7.65068 | 121.64749 | 23534 ft | 402 kts | 126° |
| 2026-05-06 14:48 | 7.63431 | 121.67011 | 23642 ft | 402 kts | 126° |
| 2026-05-06 14:49 | 7.61772 | 121.69299 | 23735 ft | 403 kts | 126° |
| 2026-05-06 14:49 | 7.60119 | 121.71577 | 23825 ft | 404 kts | 126° |
| 2026-05-06 14:49 | 7.58475 | 121.73840 | 23933 ft | 404 kts | 126° |
| 2026-05-06 14:49 | 7.56802 | 121.76141 | 24033 ft | 404 kts | 126° |
| 2026-05-06 14:50 | 7.55146 | 121.78417 | 24124 ft | 405 kts | 126° |
| 2026-05-06 14:50 | 7.53489 | 121.80694 | 24222 ft | 405 kts | 126° |
| 2026-05-06 14:50 | 7.51826 | 121.82978 | 24317 ft | 405 kts | 126° |
| 2026-05-06 14:50 | 7.50177 | 121.85243 | 24418 ft | 405 kts | 126° |
| 2026-05-06 14:51 | 7.48527 | 121.87509 | 24498 ft | 406 kts | 126° |
| 2026-05-06 14:51 | 7.46858 | 121.89800 | 24594 ft | 406 kts | 126° |
| 2026-05-06 14:51 | 7.45172 | 121.92115 | 24693 ft | 407 kts | 126° |
| 2026-05-06 14:51 | 7.43516 | 121.94389 | 24778 ft | 407 kts | 126° |
| 2026-05-06 14:52 | 7.41829 | 121.96705 | 24866 ft | 407 kts | 126° |
| 2026-05-06 14:52 | 7.40159 | 121.98997 | 24953 ft | 408 kts | 126° |
| 2026-05-06 14:52 | 7.38482 | 122.01298 | 25040 ft | 408 kts | 126° |
| 2026-05-06 14:52 | 7.36809 | 122.03594 | 25127 ft | 408 kts | 126° |
| 2026-05-06 14:53 | 7.35121 | 122.05910 | 25214 ft | 409 kts | 126° |
| 2026-05-06 14:53 | 7.33469 | 122.08177 | 25300 ft | 409 kts | 126° |
| 2026-05-06 14:53 | 7.31768 | 122.10511 | 25387 ft | 409 kts | 126° |
| 2026-05-06 14:53 | 7.30095 | 122.12806 | 25472 ft | 409 kts | 126° |
| 2026-05-06 14:54 | 7.28418 | 122.15106 | 25558 ft | 409 kts | 126° |
| 2026-05-06 14:54 | 7.26738 | 122.17411 | 25643 ft | 410 kts | 126° |
| 2026-05-06 14:54 | 7.25059 | 122.19713 | 25727 ft | 410 kts | 126° |
| 2026-05-06 14:54 | 7.23372 | 122.22026 | 25811 ft | 410 kts | 126° |
| 2026-05-06 14:55 | 7.21672 | 122.24357 | 25893 ft | 410 kts | 126° |
| 2026-05-06 14:55 | 7.19998 | 122.26653 | 25956 ft | 411 kts | 126° |
| 2026-05-06 14:55 | 7.18319 | 122.28954 | 26014 ft | 411 kts | 126° |
| 2026-05-06 14:55 | 7.16626 | 122.31275 | 26076 ft | 412 kts | 126° |
| 2026-05-06 14:56 | 7.14934 | 122.33594 | 26140 ft | 413 kts | 126° |
| 2026-05-06 14:56 | 7.13223 | 122.35938 | 26205 ft | 413 kts | 126° |
| 2026-05-06 14:56 | 7.11540 | 122.38245 | 26271 ft | 413 kts | 126° |
| 2026-05-06 14:56 | 7.09840 | 122.40574 | 26338 ft | 414 kts | 126° |
| 2026-05-06 14:57 | 7.08134 | 122.42911 | 26406 ft | 414 kts | 126° |
| 2026-05-06 14:57 | 7.06425 | 122.45252 | 26475 ft | 415 kts | 126° |
| 2026-05-06 14:57 | 7.04719 | 122.47588 | 26544 ft | 415 kts | 126° |
| 2026-05-06 14:57 | 7.03022 | 122.49911 | 26613 ft | 415 kts | 126° |
| 2026-05-06 14:58 | 7.01305 | 122.52262 | 26682 ft | 415 kts | 126° |
| 2026-05-06 14:58 | 6.99612 | 122.54579 | 26750 ft | 415 kts | 126° |
| 2026-05-06 14:58 | 6.97900 | 122.56922 | 26820 ft | 415 kts | 126° |
| 2026-05-06 14:58 | 6.96181 | 122.59275 | 26891 ft | 415 kts | 126° |
| 2026-05-06 14:59 | 6.94493 | 122.61584 | 26958 ft | 416 kts | 126° |
| 2026-05-06 14:59 | 6.92784 | 122.63924 | 27008 ft | 416 kts | 126° |
| 2026-05-06 14:59 | 6.91061 | 122.66280 | 27051 ft | 417 kts | 126° |
| 2026-05-06 14:59 | 6.89348 | 122.68623 | 27095 ft | 418 kts | 126° |
| 2026-05-06 15:00 | 6.87636 | 122.70964 | 27139 ft | 418 kts | 126° |
| 2026-05-06 15:00 | 6.85893 | 122.73347 | 27185 ft | 418 kts | 126° |
| 2026-05-06 15:00 | 6.84173 | 122.75700 | 27233 ft | 419 kts | 126° |
| 2026-05-06 15:00 | 6.82450 | 122.78056 | 27282 ft | 419 kts | 126° |
| 2026-05-06 15:01 | 6.80726 | 122.80411 | 27331 ft | 419 kts | 126° |
| 2026-05-06 15:01 | 6.79001 | 122.82769 | 27381 ft | 420 kts | 126° |
| 2026-05-06 15:01 | 6.77283 | 122.85117 | 27431 ft | 420 kts | 126° |
| 2026-05-06 15:01 | 6.75543 | 122.87495 | 27482 ft | 420 kts | 126° |
| 2026-05-06 15:02 | 6.73829 | 122.89835 | 27532 ft | 420 kts | 126° |
| 2026-05-06 15:02 | 6.72088 | 122.92213 | 27584 ft | 420 kts | 126° |
| 2026-05-06 15:02 | 6.70367 | 122.94561 | 27636 ft | 420 kts | 125° |
| 2026-05-06 15:02 | 6.68646 | 122.96912 | 27691 ft | 420 kts | 125° |
| 2026-05-06 15:03 | 6.66899 | 122.99296 | 27748 ft | 420 kts | 125° |
| 2026-05-06 15:03 | 6.65169 | 123.01657 | 27811 ft | 420 kts | 125° |
| 2026-05-06 15:03 | 6.63455 | 123.03997 | 27894 ft | 419 kts | 125° |
| 2026-05-06 15:03 | 6.61724 | 123.06360 | 27971 ft | 418 kts | 125° |
| 2026-05-06 15:04 | 6.60012 | 123.08697 | 28056 ft | 417 kts | 124° |
| 2026-05-06 15:04 | 6.58301 | 123.11041 | 28197 ft | 412 kts | 127° |
| 2026-05-06 15:04 | 6.56621 | 123.13359 | 28238 ft | 412 kts | 127° |
| 2026-05-06 15:05 | 6.53220 | 123.17979 | 28317 ft | 412 kts | 127° |
| 2026-05-06 15:05 | 6.49830 | 123.22594 | 28384 ft | 412 kts | 127° |
| 2026-05-06 15:06 | 6.46436 | 123.27219 | 28467 ft | 412 kts | 127° |
| 2026-05-06 15:06 | 6.43037 | 123.31850 | 28532 ft | 412 kts | 127° |
| 2026-05-06 15:07 | 6.39652 | 123.36462 | 28610 ft | 412 kts | 127° |
| 2026-05-06 15:07 | 6.36234 | 123.41119 | 28671 ft | 412 kts | 127° |
| 2026-05-06 15:08 | 6.32846 | 123.45734 | 28736 ft | 412 kts | 127° |
| 2026-05-06 15:08 | 6.29455 | 123.50350 | 28818 ft | 411 kts | 127° |
| 2026-05-06 15:09 | 6.26061 | 123.54971 | 28935 ft | 411 kts | 127° |
| 2026-05-06 15:09 | 6.22682 | 123.59569 | 29003 ft | 411 kts | 127° |
| 2026-05-06 15:10 | 6.19268 | 123.64214 | 29092 ft | 411 kts | 127° |
| 2026-05-06 15:10 | 6.15861 | 123.68848 | 29179 ft | 411 kts | 127° |
| 2026-05-06 15:11 | 6.12460 | 123.73473 | 29258 ft | 411 kts | 127° |
| 2026-05-06 15:11 | 6.09068 | 123.78085 | 29332 ft | 411 kts | 127° |
| 2026-05-06 15:12 | 6.05685 | 123.82683 | 29398 ft | 411 kts | 127° |
| 2026-05-06 15:12 | 6.02294 | 123.87291 | 29448 ft | 411 kts | 127° |
| 2026-05-06 15:13 | 5.98894 | 123.91910 | 29479 ft | 412 kts | 127° |
| 2026-05-06 15:13 | 5.95508 | 123.96509 | 29508 ft | 412 kts | 127° |
| 2026-05-06 15:14 | 5.92091 | 124.01149 | 29535 ft | 413 kts | 127° |
| 2026-05-06 15:14 | 5.88669 | 124.05796 | 29562 ft | 413 kts | 127° |
| 2026-05-06 15:15 | 5.85275 | 124.10402 | 29591 ft | 414 kts | 127° |
| 2026-05-06 15:15 | 5.81844 | 124.15058 | 29621 ft | 414 kts | 127° |
| 2026-05-06 15:16 | 5.78420 | 124.19703 | 29652 ft | 414 kts | 127° |
| 2026-05-06 15:16 | 5.75009 | 124.24330 | 29684 ft | 415 kts | 127° |
| 2026-05-06 15:17 | 5.71585 | 124.28973 | 29716 ft | 415 kts | 127° |
| 2026-05-06 15:17 | 5.68166 | 124.33607 | 29747 ft | 415 kts | 127° |
| 2026-05-06 15:18 | 5.64746 | 124.38243 | 29778 ft | 415 kts | 127° |
| 2026-05-06 15:18 | 5.61303 | 124.42909 | 29808 ft | 415 kts | 127° |
| 2026-05-06 15:19 | 5.57865 | 124.47566 | 29836 ft | 415 kts | 127° |
| 2026-05-06 15:19 | 5.54452 | 124.52190 | 29864 ft | 415 kts | 127° |
| 2026-05-06 15:20 | 5.51012 | 124.56848 | 29891 ft | 415 kts | 127° |
| 2026-05-06 15:20 | 5.47590 | 124.61481 | 29916 ft | 415 kts | 127° |
| 2026-05-06 15:21 | 5.44144 | 124.66145 | 29942 ft | 415 kts | 127° |
| 2026-05-06 15:21 | 5.40719 | 124.70781 | 29973 ft | 415 kts | 127° |
| 2026-05-06 15:22 | 5.37285 | 124.75427 | 30003 ft | 415 kts | 127° |
| 2026-05-06 15:22 | 5.33853 | 124.80069 | 30031 ft | 415 kts | 127° |
| 2026-05-06 15:23 | 5.30429 | 124.84701 | 30059 ft | 415 kts | 127° |
| 2026-05-06 15:23 | 5.26995 | 124.89343 | 30087 ft | 415 kts | 127° |
| 2026-05-06 15:24 | 5.23568 | 124.93977 | 30116 ft | 415 kts | 127° |
| 2026-05-06 15:24 | 5.20131 | 124.98622 | 30143 ft | 415 kts | 127° |
| 2026-05-06 15:25 | 5.16686 | 125.03278 | 30170 ft | 415 kts | 127° |
| 2026-05-06 15:25 | 5.13250 | 125.07919 | 30195 ft | 415 kts | 127° |
| 2026-05-06 15:26 | 5.09812 | 125.12563 | 30195 ft | 415 kts | 127° |
| 2026-05-06 15:26 | 5.06389 | 125.17181 | 30202 ft | 415 kts | 125° |
| 2026-05-06 15:26 | 5.04642 | 125.19511 | 30084 ft | 417 kts | 125° |
| 2026-05-06 15:27 | 5.02923 | 125.21849 | 29938 ft | 421 kts | 124° |
| 2026-05-06 15:27 | 4.99418 | 125.26584 | 29802 ft | 425 kts | 124° |
| 2026-05-06 15:28 | 4.95910 | 125.31323 | 29803 ft | 426 kts | 124° |
| 2026-05-06 15:28 | 4.92395 | 125.36070 | 29840 ft | 426 kts | 124° |
| 2026-05-06 15:29 | 4.88875 | 125.40820 | 29889 ft | 425 kts | 124° |
| 2026-05-06 15:29 | 4.85359 | 125.45563 | 29928 ft | 425 kts | 124° |
| 2026-05-06 15:30 | 4.81821 | 125.50333 | 29964 ft | 425 kts | 124° |
| 2026-05-06 15:30 | 4.78313 | 125.55064 | 29997 ft | 425 kts | 124° |
| 2026-05-06 15:31 | 4.74796 | 125.59804 | 30031 ft | 425 kts | 124° |
| 2026-05-06 15:31 | 4.71278 | 125.64545 | 30062 ft | 425 kts | 124° |
| 2026-05-06 15:32 | 4.65992 | 125.71668 | 30123 ft | 424 kts | 124° |
| 2026-05-06 15:32 | 4.62487 | 125.76390 | 30161 ft | 424 kts | 124° |
| 2026-05-06 15:33 | 4.58986 | 125.81105 | 30198 ft | 424 kts | 124° |
| 2026-05-06 15:33 | 4.55454 | 125.85862 | 30233 ft | 424 kts | 124° |
| 2026-05-06 15:34 | 4.51958 | 125.90568 | 30266 ft | 424 kts | 124° |
| 2026-05-06 15:34 | 4.48453 | 125.95286 | 30298 ft | 424 kts | 124° |
| 2026-05-06 15:35 | 4.44929 | 126.00028 | 30329 ft | 424 kts | 124° |
| 2026-05-06 15:35 | 4.41410 | 126.04764 | 30358 ft | 424 kts | 124° |
| 2026-05-06 15:36 | 4.37909 | 126.09473 | 30386 ft | 424 kts | 124° |
| 2026-05-06 15:36 | 4.34395 | 126.14201 | 30412 ft | 424 kts | 124° |
| 2026-05-06 15:37 | 4.30874 | 126.18935 | 30438 ft | 424 kts | 124° |
| 2026-05-06 15:37 | 4.27387 | 126.23624 | 30463 ft | 424 kts | 124° |
| 2026-05-06 15:38 | 4.23853 | 126.28375 | 30489 ft | 423 kts | 124° |
| 2026-05-06 15:38 | 4.20336 | 126.33102 | 30514 ft | 423 kts | 124° |
| 2026-05-06 15:39 | 4.16842 | 126.37798 | 30533 ft | 424 kts | 124° |
| 2026-05-06 15:39 | 4.13321 | 126.42529 | 30536 ft | 424 kts | 124° |
| 2026-05-06 15:40 | 4.09795 | 126.47266 | 30544 ft | 424 kts | 124° |
| 2026-05-06 15:40 | 4.06291 | 126.51972 | 30556 ft | 425 kts | 124° |
| 2026-05-06 15:41 | 4.02757 | 126.56719 | 30570 ft | 425 kts | 124° |
| 2026-05-06 15:41 | 3.99225 | 126.61461 | 30586 ft | 425 kts | 124° |
| 2026-05-06 15:42 | 3.95719 | 126.66168 | 30605 ft | 425 kts | 124° |
| 2026-05-06 15:42 | 3.92186 | 126.70910 | 30636 ft | 425 kts | 124° |
| 2026-05-06 15:43 | 3.88680 | 126.75615 | 30664 ft | 425 kts | 124° |
| 2026-05-06 15:43 | 3.85144 | 126.80360 | 30685 ft | 425 kts | 124° |
| 2026-05-06 15:44 | 3.81603 | 126.85110 | 30707 ft | 425 kts | 124° |
| 2026-05-06 15:44 | 3.78075 | 126.89842 | 30728 ft | 425 kts | 124° |
| 2026-05-06 15:45 | 3.74568 | 126.94546 | 30749 ft | 425 kts | 124° |
| 2026-05-06 15:45 | 3.71037 | 126.99282 | 30772 ft | 425 kts | 124° |
| 2026-05-06 15:46 | 3.67514 | 127.04008 | 30820 ft | 423 kts | 126° |
| 2026-05-06 15:46 | 3.64022 | 127.08695 | 30922 ft | 420 kts | 127° |
| 2026-05-06 15:47 | 3.60528 | 127.13378 | 30987 ft | 418 kts | 127° |
| 2026-05-06 15:47 | 3.57067 | 127.18014 | 31045 ft | 417 kts | 127° |
| 2026-05-06 15:48 | 3.53620 | 127.22631 | 31087 ft | 416 kts | 127° |
| 2026-05-06 15:48 | 3.50174 | 127.27246 | 31109 ft | 415 kts | 127° |
| 2026-05-06 15:49 | 3.46714 | 127.31880 | 31126 ft | 415 kts | 127° |
| 2026-05-06 15:49 | 3.43276 | 127.36485 | 31140 ft | 415 kts | 127° |
| 2026-05-06 15:50 | 3.39824 | 127.41109 | 31153 ft | 415 kts | 127° |
| 2026-05-06 15:50 | 3.36401 | 127.45692 | 31162 ft | 414 kts | 127° |
| 2026-05-06 15:51 | 3.32952 | 127.50309 | 31171 ft | 414 kts | 127° |
| 2026-05-06 15:51 | 3.29509 | 127.54920 | 31177 ft | 414 kts | 127° |
| 2026-05-06 15:52 | 3.26064 | 127.59531 | 31181 ft | 414 kts | 127° |
| 2026-05-06 15:52 | 3.22648 | 127.64102 | 31182 ft | 414 kts | 127° |
| 2026-05-06 15:53 | 3.19193 | 127.68726 | 31194 ft | 414 kts | 127° |
| 2026-05-06 15:53 | 3.15759 | 127.73321 | 31208 ft | 414 kts | 127° |
| 2026-05-06 15:54 | 3.12326 | 127.77913 | 31221 ft | 413 kts | 127° |
| 2026-05-06 15:54 | 3.08893 | 127.82506 | 31233 ft | 413 kts | 127° |
| 2026-05-06 15:55 | 3.05463 | 127.87093 | 31243 ft | 413 kts | 127° |
| 2026-05-06 15:55 | 3.02028 | 127.91686 | 31251 ft | 413 kts | 127° |
| 2026-05-06 15:56 | 2.98582 | 127.96294 | 31248 ft | 414 kts | 126° |
| 2026-05-06 15:56 | 2.95154 | 128.00874 | 31209 ft | 414 kts | 125° |
| 2026-05-06 15:57 | 2.93412 | 128.03180 | 31007 ft | 419 kts | 124° |
| 2026-05-06 15:57 | 2.91668 | 128.05531 | 30790 ft | 424 kts | 124° |
| 2026-05-06 15:57 | 2.89897 | 128.07899 | 30661 ft | 428 kts | 125° |
| 2026-05-06 15:57 | 2.88108 | 128.10292 | 30614 ft | 429 kts | 124° |
| 2026-05-06 15:58 | 2.84542 | 128.15062 | 30633 ft | 429 kts | 124° |
| 2026-05-06 15:58 | 2.80985 | 128.19817 | 30681 ft | 429 kts | 124° |
| 2026-05-06 15:59 | 2.77421 | 128.24579 | 30732 ft | 428 kts | 124° |
| 2026-05-06 15:59 | 2.73857 | 128.29341 | 30774 ft | 428 kts | 124° |
| 2026-05-06 16:00 | 2.70316 | 128.34073 | 30813 ft | 428 kts | 125° |
| 2026-05-06 16:00 | 2.66748 | 128.38838 | 30851 ft | 427 kts | 125° |
| 2026-05-06 16:01 | 2.63204 | 128.43571 | 30883 ft | 427 kts | 125° |
| 2026-05-06 16:01 | 2.59653 | 128.48314 | 30915 ft | 427 kts | 125° |
| 2026-05-06 16:02 | 2.56088 | 128.53075 | 30941 ft | 427 kts | 125° |
| 2026-05-06 16:02 | 2.52561 | 128.57783 | 30972 ft | 427 kts | 125° |
| 2026-05-06 16:03 | 2.49017 | 128.62515 | 30995 ft | 427 kts | 125° |
| 2026-05-06 16:03 | 2.45449 | 128.67279 | 31023 ft | 426 kts | 125° |
| 2026-05-06 16:04 | 2.41905 | 128.72008 | 31058 ft | 426 kts | 125° |
| 2026-05-06 16:04 | 2.38376 | 128.76718 | 31091 ft | 426 kts | 125° |
| 2026-05-06 16:05 | 2.34829 | 128.81451 | 31122 ft | 426 kts | 125° |
| 2026-05-06 16:05 | 2.31266 | 128.86206 | 31152 ft | 426 kts | 125° |
| 2026-05-06 16:06 | 2.27721 | 128.90936 | 31181 ft | 426 kts | 125° |
| 2026-05-06 16:06 | 2.24193 | 128.95644 | 31210 ft | 426 kts | 124° |
| 2026-05-06 16:07 | 2.20635 | 129.00389 | 31239 ft | 426 kts | 124° |
| 2026-05-06 16:07 | 2.17171 | 129.05009 | 31267 ft | 426 kts | 124° |
| 2026-05-06 16:08 | 2.13636 | 129.09724 | 31295 ft | 425 kts | 124° |
| 2026-05-06 16:08 | 2.10077 | 129.14470 | 31323 ft | 425 kts | 124° |
| 2026-05-06 16:09 | 2.06549 | 129.19176 | 31348 ft | 425 kts | 124° |
| 2026-05-06 16:09 | 2.03018 | 129.23886 | 31371 ft | 425 kts | 124° |
| 2026-05-06 16:10 | 1.99467 | 129.28621 | 31393 ft | 425 kts | 124° |
| 2026-05-06 16:10 | 1.95931 | 129.33334 | 31413 ft | 425 kts | 124° |
| 2026-05-06 16:11 | 1.92402 | 129.38039 | 31432 ft | 425 kts | 124° |
| 2026-05-06 16:11 | 1.88861 | 129.42760 | 31447 ft | 425 kts | 124° |
| 2026-05-06 16:12 | 1.85327 | 129.47470 | 31435 ft | 425 kts | 124° |
| 2026-05-06 16:12 | 1.81772 | 129.52206 | 31428 ft | 426 kts | 124° |
| 2026-05-06 16:13 | 1.78243 | 129.56909 | 31424 ft | 426 kts | 124° |
| 2026-05-06 16:13 | 1.74693 | 129.61639 | 31424 ft | 426 kts | 124° |
| 2026-05-06 16:14 | 1.71157 | 129.66351 | 31429 ft | 426 kts | 124° |
| 2026-05-06 16:14 | 1.67603 | 129.71086 | 31449 ft | 426 kts | 124° |
| 2026-05-06 16:15 | 1.64057 | 129.75812 | 31469 ft | 427 kts | 124° |
| 2026-05-06 16:15 | 1.60494 | 129.80559 | 31490 ft | 427 kts | 124° |
| 2026-05-06 16:16 | 1.56937 | 129.85297 | 31510 ft | 427 kts | 124° |
| 2026-05-06 16:16 | 1.53386 | 129.90027 | 31530 ft | 427 kts | 124° |
| 2026-05-06 16:17 | 1.49834 | 129.94757 | 31549 ft | 427 kts | 124° |
| 2026-05-06 16:17 | 1.46298 | 129.99468 | 31568 ft | 427 kts | 124° |
| 2026-05-06 16:18 | 1.42750 | 130.04192 | 31586 ft | 427 kts | 124° |
| 2026-05-06 16:18 | 1.39188 | 130.08936 | 31604 ft | 427 kts | 124° |
| 2026-05-06 16:19 | 1.35640 | 130.13660 | 31621 ft | 427 kts | 124° |
| 2026-05-06 16:19 | 1.32086 | 130.18393 | 31637 ft | 426 kts | 124° |
| 2026-05-06 16:20 | 1.28528 | 130.23129 | 31652 ft | 426 kts | 124° |
| 2026-05-06 16:20 | 1.24989 | 130.27843 | 31666 ft | 426 kts | 124° |
| 2026-05-06 16:21 | 1.21438 | 130.32568 | 31679 ft | 426 kts | 124° |
| 2026-05-06 16:21 | 1.17881 | 130.37303 | 31689 ft | 426 kts | 124° |
| 2026-05-06 16:22 | 1.14342 | 130.42017 | 31697 ft | 426 kts | 124° |
| 2026-05-06 16:22 | 1.10771 | 130.46770 | 31699 ft | 427 kts | 124° |
| 2026-05-06 16:23 | 1.07234 | 130.51479 | 31688 ft | 427 kts | 124° |
| 2026-05-06 16:23 | 1.03665 | 130.56229 | 31682 ft | 427 kts | 124° |
| 2026-05-06 16:24 | 1.00092 | 130.60983 | 31679 ft | 428 kts | 124° |
| 2026-05-06 16:24 | 0.96534 | 130.65720 | 31681 ft | 428 kts | 124° |
| 2026-05-06 16:25 | 0.92972 | 130.70459 | 31696 ft | 428 kts | 124° |
| 2026-05-06 16:25 | 0.89400 | 130.75211 | 31713 ft | 428 kts | 124° |
| 2026-05-06 16:26 | 0.87175 | 130.78172 | 31718 ft | 428 kts | 124° |